»·PEaware :: UAL2500 KBFI-KSNA

UAL2500 :: KBFI-KSNA

FLIGHT INFORMATION

Flight Status: Arrived
Operator:
United Airlines
More flights by this operator :: More flights under this callsign
Pilot: Evan B. (39662)
Aircraft: BOEING 737-900
(B739)
More flights by this aircraft type
Origin: KBFI Boeing Field/King Co Intl
United States
Destination: KSNA John Wayne-Orange Co
United States
More flights between these airports :: More routes between these airports
Route: CBAIN1 SUMMA Q9 REBRG OHSEA2
File this flight plan on PilotEdge
Remarks: RMK / SIMBRIEF
Altitude:
(Current/Filed)
37,000ft
Speed:
(Current/Filed)
460kts
Departed: 15-Jul-23 05:19 PM
Arrived: 15-Jul-23 07:47 PM
Distance/Time
Traveled:
855nm/2:28
Distance/Time
To Go:
Arrived

Flight Plot

Page will automatically refresh every two minutes.

Flight plan parsing failed; only flown route is shown


Map Options




Map Legend


Flown Route
Filed Route
Departure Airport
Arrival Airport
Navaid (VOR, NDB)
Fix

Horizontal Profiles

Position Reports

Time Latitude Longitude Heading Altitude Ground
Speed
15-Jul-23 16:59 47.527135 -122.297336 240 28ft 0kts
15-Jul-23 17:00 47.527135 -122.297336 240 28ft 0kts
15-Jul-23 17:01 47.527135 -122.297336 240 28ft 0kts
15-Jul-23 17:02 47.527135 -122.297336 240 28ft 0kts
15-Jul-23 17:03 47.527135 -122.297336 240 25ft 0kts
15-Jul-23 17:04 47.527135 -122.297336 240 25ft 0kts
15-Jul-23 17:05 47.527135 -122.297336 240 25ft 0kts
15-Jul-23 17:06 47.527135 -122.297336 240 25ft 0kts
15-Jul-23 17:07 47.527135 -122.297336 240 25ft 0kts
15-Jul-23 17:08 47.527135 -122.297336 240 25ft 0kts
15-Jul-23 17:09 47.527135 -122.297336 240 25ft 0kts
15-Jul-23 17:10 47.527135 -122.297336 240 25ft 0kts
15-Jul-23 17:11 47.527135 -122.297336 240 25ft 0kts
15-Jul-23 17:12 47.527135 -122.297336 240 25ft 0kts
15-Jul-23 17:13 47.527135 -122.297336 240 25ft 0kts
15-Jul-23 17:14 47.526883 -122.297752 207 24ft 8kts
15-Jul-23 17:15 47.523295 -122.295177 147 29ft 19kts
15-Jul-23 17:16 47.520207 -122.292528 149 26ft 0kts
15-Jul-23 17:17 47.519785 -122.292230 165 26ft 9kts
15-Jul-23 17:18 47.527618 -122.300477 329 66ft 147kts
15-Jul-23 17:19 47.565372 -122.332347 330 2280ft 175kts
15-Jul-23 17:20 47.600613 -122.398233 254 4429ft 243kts
15-Jul-23 17:21 47.539184 -122.429130 164 7768ft 281kts
15-Jul-23 17:22 47.462477 -122.390431 164 10786ft 322kts
15-Jul-23 17:23 47.367416 -122.343906 164 12648ft 375kts
15-Jul-23 17:24 47.266532 -122.295308 165 15288ft 389kts
15-Jul-23 17:25 47.161714 -122.245187 166 17647ft 403kts
15-Jul-23 17:26 47.053453 -122.193632 167 19656ft 415kts
15-Jul-23 17:27 46.941735 -122.140666 167 21513ft 427kts
15-Jul-23 17:28 46.827669 -122.086803 168 23264ft 438kts
15-Jul-23 17:29 46.710419 -122.031685 168 24750ft 448kts
15-Jul-23 17:30 46.589839 -121.980700 177 26093ft 450kts
15-Jul-23 17:31 46.465168 -121.951145 178 27333ft 458kts
15-Jul-23 17:32 46.337866 -121.920587 178 28503ft 466kts
15-Jul-23 17:33 46.209851 -121.889721 178 30160ft 465kts
15-Jul-23 17:34 46.083778 -121.859406 179 32128ft 452kts
15-Jul-23 17:35 45.960969 -121.830158 179 34000ft 443kts
15-Jul-23 17:36 45.839346 -121.801392 179 35303ft 443kts
15-Jul-23 17:37 45.718438 -121.772838 180 36543ft 441kts
15-Jul-23 17:38 45.596493 -121.744197 180 36994ft 444kts
15-Jul-23 17:39 45.475214 -121.715740 180 37015ft 442kts
15-Jul-23 17:40 45.353375 -121.687387 179 36979ft 444kts
15-Jul-23 17:41 45.231571 -121.659066 179 37027ft 445kts
15-Jul-23 17:42 45.109012 -121.630776 179 37045ft 447kts
15-Jul-23 17:43 44.985943 -121.602453 179 37021ft 449kts
15-Jul-23 17:44 44.862437 -121.574147 179 37015ft 450kts
15-Jul-23 17:45 44.739102 -121.546007 179 37024ft 450kts
15-Jul-23 17:46 44.614956 -121.517830 178 37025ft 453kts
15-Jul-23 17:47 44.490614 -121.489690 179 37028ft 453kts
15-Jul-23 17:48 44.366012 -121.461636 178 37051ft 453kts
15-Jul-23 17:49 44.241450 -121.433706 178 37056ft 453kts
15-Jul-23 17:50 44.116970 -121.405911 178 37069ft 453kts
15-Jul-23 17:51 43.992715 -121.378289 178 37077ft 453kts
15-Jul-23 17:52 43.868289 -121.350736 178 37063ft 454kts
15-Jul-23 17:53 43.743515 -121.323137 178 37047ft 455kts
15-Jul-23 17:54 43.618047 -121.295353 178 37048ft 456kts
15-Jul-23 17:55 43.492672 -121.267716 178 37044ft 456kts
15-Jul-23 17:56 43.367638 -121.240288 178 37024ft 455kts
15-Jul-23 17:57 43.242425 -121.212931 178 37028ft 455kts
15-Jul-23 17:58 43.117477 -121.185767 177 37030ft 456kts
15-Jul-23 17:59 42.991705 -121.158529 177 37032ft 458kts
15-Jul-23 18:00 42.865496 -121.131295 177 37023ft 459kts
15-Jul-23 18:01 42.739315 -121.104184 177 37030ft 460kts
15-Jul-23 18:02 42.612577 -121.077063 177 37023ft 460kts
15-Jul-23 18:03 42.486108 -121.050108 177 37009ft 459kts
15-Jul-23 18:04 42.359982 -121.023348 177 37014ft 459kts
15-Jul-23 18:05 42.233958 -120.996709 177 36998ft 458kts
15-Jul-23 18:06 42.107937 -120.970194 176 36994ft 459kts
15-Jul-23 18:07 41.981900 -120.943772 176 36988ft 459kts
15-Jul-23 18:08 41.855619 -120.917402 176 36987ft 459kts
15-Jul-23 18:09 41.729573 -120.891181 176 36985ft 459kts
15-Jul-23 18:10 41.603385 -120.865038 176 37039ft 458kts
15-Jul-23 18:11 41.477491 -120.839060 176 37068ft 458kts
15-Jul-23 18:12 41.351272 -120.813117 176 37056ft 458kts
15-Jul-23 18:13 41.225332 -120.787334 176 37019ft 458kts
15-Jul-23 18:14 41.099137 -120.761593 176 37006ft 459kts
15-Jul-23 18:15 40.973168 -120.735435 174 37017ft 460kts
15-Jul-23 18:16 40.847114 -120.704517 174 37010ft 460kts
15-Jul-23 18:17 40.721027 -120.673870 174 37008ft 460kts
15-Jul-23 18:18 40.595247 -120.643650 174 37042ft 460kts
15-Jul-23 18:19 40.469454 -120.613533 174 37117ft 458kts
15-Jul-23 18:21 40.344076 -120.583643 174 37117ft 458kts
15-Jul-23 18:22 40.218569 -120.553846 173 37081ft 459kts
15-Jul-23 18:23 40.092838 -120.524080 173 37015ft 459kts
15-Jul-23 18:24 39.967561 -120.494541 173 36988ft 458kts
15-Jul-23 18:25 39.842373 -120.465138 173 36986ft 458kts
15-Jul-23 18:26 39.716837 -120.435756 173 37000ft 458kts
15-Jul-23 18:27 39.591525 -120.406537 173 37026ft 457kts
15-Jul-23 18:28 39.466147 -120.377412 173 37155ft 457kts
15-Jul-23 18:29 39.340888 -120.348432 173 37234ft 458kts
15-Jul-23 18:30 39.215190 -120.319443 173 37222ft 459kts
15-Jul-23 18:31 39.089463 -120.290547 173 37156ft 458kts
15-Jul-23 18:32 38.964242 -120.261869 173 37218ft 457kts
15-Jul-23 18:33 38.838847 -120.233271 173 37239ft 457kts
15-Jul-23 18:34 38.713226 -120.204715 173 37211ft 457kts
15-Jul-23 18:35 38.588136 -120.176379 173 37128ft 458kts
15-Jul-23 18:36 38.462589 -120.148035 173 37090ft 457kts
15-Jul-23 18:37 38.337351 -120.119863 173 37049ft 458kts
15-Jul-23 18:38 38.211604 -120.091745 173 37008ft 458kts
15-Jul-23 18:39 38.086092 -120.064159 173 36970ft 457kts
15-Jul-23 18:40 37.960707 -120.036663 173 36954ft 458kts
15-Jul-23 18:41 37.835074 -120.009201 173 36946ft 458kts
15-Jul-23 18:42 37.709538 -119.981866 173 36931ft 458kts
15-Jul-23 18:43 37.584290 -119.954683 173 36909ft 457kts
15-Jul-23 18:43 37.479528 -119.932019 173 36906ft 457kts
15-Jul-23 18:45 37.333244 -119.900478 173 36883ft 457kts
15-Jul-23 18:46 37.207733 -119.873515 173 36861ft 457kts
15-Jul-23 18:47 37.082621 -119.846730 173 36858ft 457kts
15-Jul-23 18:48 36.956746 -119.819870 173 36850ft 457kts
15-Jul-23 18:48 36.852633 -119.797721 173 36851ft 457kts
15-Jul-23 18:49 36.727245 -119.771130 173 36851ft 456kts
15-Jul-23 18:50 36.601950 -119.744644 173 36847ft 456kts
15-Jul-23 18:52 36.456060 -119.713913 173 36849ft 456kts
15-Jul-23 18:53 36.330809 -119.687625 173 36850ft 456kts
15-Jul-23 18:53 36.226623 -119.665821 173 36849ft 455kts
15-Jul-23 18:54 36.101658 -119.639745 173 36846ft 455kts
15-Jul-23 18:55 35.976739 -119.615582 183 36817ft 452kts
15-Jul-23 18:56 35.854093 -119.641079 191 36832ft 448kts
15-Jul-23 18:57 35.730747 -119.665734 191 36823ft 449kts
15-Jul-23 18:58 35.608434 -119.654410 157 36835ft 461kts
15-Jul-23 18:59 35.491571 -119.588235 158 36827ft 462kts
15-Jul-23 19:00 35.374239 -119.523703 158 36847ft 462kts
15-Jul-23 19:01 35.257276 -119.459486 158 36865ft 461kts
15-Jul-23 19:02 35.139914 -119.395238 158 36419ft 462kts
15-Jul-23 19:03 35.022597 -119.331210 158 35483ft 463kts
15-Jul-23 19:04 34.904786 -119.267115 158 34597ft 464kts
15-Jul-23 19:05 34.787069 -119.203260 158 33697ft 465kts
15-Jul-23 19:06 34.670126 -119.134400 153 32705ft 466kts
15-Jul-23 19:07 34.556530 -119.061417 153 31713ft 458kts
15-Jul-23 19:08 34.445466 -118.989434 152 30464ft 448kts
15-Jul-23 19:09 34.338372 -118.918349 151 27777ft 430kts
15-Jul-23 19:10 34.235353 -118.850115 151 25296ft 413kts
15-Jul-23 19:11 34.128753 -118.806251 159 22803ft 403kts
15-Jul-23 19:12 34.024104 -118.765234 159 20414ft 387kts
15-Jul-23 19:13 33.924638 -118.726762 158 18152ft 370kts
15-Jul-23 19:14 33.828406 -118.689633 159 15917ft 356kts
15-Jul-23 19:15 33.735096 -118.653844 160 13826ft 346kts
15-Jul-23 19:16 33.645306 -118.622327 160 12175ft 331kts
15-Jul-23 19:17 33.573828 -118.564895 121 10700ft 304kts
15-Jul-23 19:18 33.531903 -118.484832 121 9379ft 268kts
15-Jul-23 19:19 33.519818 -118.397921 92 8048ft 273kts
15-Jul-23 19:20 33.524436 -118.311339 71 6795ft 243kts
15-Jul-23 19:21 33.548428 -118.237698 70 5805ft 238kts
15-Jul-23 19:22 33.573834 -118.164609 58 5001ft 236kts
15-Jul-23 19:23 33.610405 -118.099719 57 4956ft 217kts
15-Jul-23 19:24 33.642236 -118.042977 57 4980ft 205kts
15-Jul-23 19:25 33.674111 -117.986189 56 5001ft 205kts
15-Jul-23 19:26 33.711300 -117.935719 27 4727ft 208kts
15-Jul-23 19:27 33.757562 -117.907555 26 3764ft 176kts
15-Jul-23 19:28 33.789859 -117.869859 81 2800ft 155kts
15-Jul-23 19:29 33.773693 -117.827434 148 1912ft 140kts
15-Jul-23 19:30 33.736713 -117.830167 208 1322ft 139kts
15-Jul-23 19:31 33.703918 -117.850943 208 633ft 130kts
15-Jul-23 19:32 33.668499 -117.873581 207 1876ft 157kts
15-Jul-23 19:33 33.619942 -117.882802 186 3609ft 196kts
15-Jul-23 19:34 33.569027 -117.899852 241 4982ft 199kts
15-Jul-23 19:35 33.531244 -117.900726 95 4999ft 200kts
15-Jul-23 19:36 33.570789 -117.857080 31 5000ft 203kts
15-Jul-23 19:37 33.617034 -117.823673 31 5002ft 193kts
15-Jul-23 19:38 33.659623 -117.792588 31 3799ft 163kts
15-Jul-23 19:39 33.699305 -117.764181 27 3366ft 159kts
15-Jul-23 19:40 33.740190 -117.748708 355 2527ft 148kts
15-Jul-23 19:41 33.777454 -117.770213 325 2492ft 148kts
15-Jul-23 19:42 33.778951 -117.808076 208 2117ft 137kts
15-Jul-23 19:43 33.743617 -117.825885 208 1256ft 132kts
15-Jul-23 19:44 33.711678 -117.845980 210 691ft 125kts
15-Jul-23 19:45 33.681086 -117.865439 208 84ft 117kts
15-Jul-23 19:46 33.669161 -117.871383 95 60ft 19kts
15-Jul-23 19:47 33.673024 -117.867378 43 58ft 19kts
15-Jul-23 19:48 33.679193 -117.863263 26 50ft 22kts
15-Jul-23 19:49 33.679611 -117.862737 141 51ft 4kts
15-Jul-23 19:50 33.679354 -117.862389 119 50ft 0kts
15-Jul-23 19:51 33.679354 -117.862389 119 50ft 0kts
15-Jul-23 19:52 33.679354 -117.862389 119 50ft 0kts
15-Jul-23 19:53 33.679354 -117.862389 119 50ft 0kts
15-Jul-23 19:54 33.679354 -117.862389 119 50ft 0kts
15-Jul-23 19:55 33.679354 -117.862389 119 50ft 0kts
15-Jul-23 19:56 33.679354 -117.862389 119 50ft 0kts
15-Jul-23 19:57 33.679354 -117.862389 119 50ft 0kts
15-Jul-23 19:58 33.679354 -117.862389 119 50ft 0kts
15-Jul-23 19:59 33.679354 -117.862389 119 50ft 0kts
15-Jul-23 20:00 33.679354 -117.862389 119 50ft 0kts

Navigation Log

Ident Type
Flight plan parsing failed, navigation log unavailable